sensor_id;sensor_type;location;lat;lon;timestamp;P1;durP1;ratioP1;P2;durP2;ratioP2
56457;SDS011;42360;42.918;12.366;2023-07-13T00:00:20;3.85;;;1.92;;
56457;SDS011;42360;42.918;12.366;2023-07-13T00:02:47;4.07;;;1.98;;
56457;SDS011;42360;42.918;12.366;2023-07-13T00:05:12;2.88;;;1.48;;
56457;SDS011;42360;42.918;12.366;2023-07-13T00:07:38;4.47;;;2.03;;
56457;SDS011;42360;42.918;12.366;2023-07-13T00:10:04;6.63;;;2.90;;
56457;SDS011;42360;42.918;12.366;2023-07-13T00:12:34;3.08;;;2.35;;
56457;SDS011;42360;42.918;12.366;2023-07-13T00:15:03;5.22;;;2.65;;
56457;SDS011;42360;42.918;12.366;2023-07-13T00:17:31;4.23;;;1.77;;
56457;SDS011;42360;42.918;12.366;2023-07-13T00:19:57;6.70;;;2.38;;
56457;SDS011;42360;42.918;12.366;2023-07-13T00:22:23;8.23;;;2.67;;
56457;SDS011;42360;42.918;12.366;2023-07-13T00:24:51;4.60;;;1.98;;
56457;SDS011;42360;42.918;12.366;2023-07-13T00:27:17;5.10;;;2.17;;
56457;SDS011;42360;42.918;12.366;2023-07-13T00:29:43;4.10;;;2.28;;
56457;SDS011;42360;42.918;12.366;2023-07-13T00:32:08;8.27;;;2.60;;
56457;SDS011;42360;42.918;12.366;2023-07-13T00:34:34;3.08;;;1.92;;
56457;SDS011;42360;42.918;12.366;2023-07-13T00:37:00;6.35;;;2.00;;
56457;SDS011;42360;42.918;12.366;2023-07-13T00:39:25;5.40;;;2.67;;
56457;SDS011;42360;42.918;12.366;2023-07-13T00:41:51;9.10;;;2.70;;
56457;SDS011;42360;42.918;12.366;2023-07-13T00:44:18;4.43;;;2.20;;
56457;SDS011;42360;42.918;12.366;2023-07-13T00:46:44;4.63;;;2.10;;
56457;SDS011;42360;42.918;12.366;2023-07-13T00:49:11;3.22;;;2.25;;
56457;SDS011;42360;42.918;12.366;2023-07-13T00:51:48;3.58;;;1.88;;
56457;SDS011;42360;42.918;12.366;2023-07-13T00:54:15;5.65;;;2.47;;
56457;SDS011;42360;42.918;12.366;2023-07-13T00:56:43;5.95;;;2.30;;
56457;SDS011;42360;42.918;12.366;2023-07-13T00:59:10;5.22;;;2.70;;
56457;SDS011;42360;42.918;12.366;2023-07-13T01:01:37;4.07;;;2.75;;
56457;SDS011;42360;42.918;12.366;2023-07-13T01:04:04;5.72;;;2.90;;
56457;SDS011;42360;42.918;12.366;2023-07-13T01:06:33;4.93;;;2.03;;
56457;SDS011;42360;42.918;12.366;2023-07-13T01:09:01;3.60;;;2.08;;
56457;SDS011;42360;42.918;12.366;2023-07-13T01:11:27;6.45;;;2.45;;
56457;SDS011;42360;42.918;12.366;2023-07-13T01:13:53;5.95;;;2.38;;
56457;SDS011;42360;42.918;12.366;2023-07-13T01:16:26;5.55;;;2.65;;
56457;SDS011;42360;42.918;12.366;2023-07-13T01:18:53;3.22;;;2.40;;
56457;SDS011;42360;42.918;12.366;2023-07-13T01:21:23;3.23;;;2.27;;
56457;SDS011;42360;42.918;12.366;2023-07-13T01:23:48;5.45;;;2.35;;
56457;SDS011;42360;42.918;12.366;2023-07-13T01:26:13;4.07;;;2.60;;
56457;SDS011;42360;42.918;12.366;2023-07-13T01:28:39;3.17;;;2.00;;
56457;SDS011;42360;42.918;12.366;2023-07-13T01:31:04;3.08;;;2.20;;
56457;SDS011;42360;42.918;12.366;2023-07-13T01:33:30;7.13;;;2.38;;
56457;SDS011;42360;42.918;12.366;2023-07-13T01:35:55;7.13;;;2.40;;
56457;SDS011;42360;42.918;12.366;2023-07-13T01:38:24;5.68;;;2.22;;
56457;SDS011;42360;42.918;12.366;2023-07-13T01:40:50;4.63;;;2.67;;
56457;SDS011;42360;42.918;12.366;2023-07-13T01:43:17;5.82;;;2.10;;
56457;SDS011;42360;42.918;12.366;2023-07-13T01:45:43;5.40;;;2.40;;
56457;SDS011;42360;42.918;12.366;2023-07-13T01:48:09;7.88;;;2.45;;
56457;SDS011;42360;42.918;12.366;2023-07-13T01:50:35;4.80;;;2.70;;
56457;SDS011;42360;42.918;12.366;2023-07-13T01:53:01;8.02;;;2.70;;
56457;SDS011;42360;42.918;12.366;2023-07-13T01:55:27;3.47;;;2.20;;
56457;SDS011;42360;42.918;12.366;2023-07-13T01:57:53;5.13;;;2.20;;
56457;SDS011;42360;42.918;12.366;2023-07-13T02:00:19;4.32;;;2.60;;
56457;SDS011;42360;42.918;12.366;2023-07-13T02:02:44;4.15;;;2.30;;
56457;SDS011;42360;42.918;12.366;2023-07-13T02:05:10;3.53;;;2.60;;
56457;SDS011;42360;42.918;12.366;2023-07-13T02:07:36;4.93;;;2.67;;
56457;SDS011;42360;42.918;12.366;2023-07-13T02:10:02;11.18;;;2.58;;
56457;SDS011;42360;42.918;12.366;2023-07-13T02:12:28;4.63;;;2.47;;
56457;SDS011;42360;42.918;12.366;2023-07-13T02:14:53;3.72;;;2.10;;
56457;SDS011;42360;42.918;12.366;2023-07-13T02:17:19;4.10;;;2.05;;
56457;SDS011;42360;42.918;12.366;2023-07-13T02:19:44;5.00;;;1.90;;
56457;SDS011;42360;42.918;12.366;2023-07-13T02:22:10;8.50;;;2.67;;
56457;SDS011;42360;42.918;12.366;2023-07-13T02:24:36;5.40;;;2.50;;
56457;SDS011;42360;42.918;12.366;2023-07-13T02:27:03;5.15;;;2.25;;
56457;SDS011;42360;42.918;12.366;2023-07-13T02:29:29;7.35;;;2.60;;
56457;SDS011;42360;42.918;12.366;2023-07-13T02:31:54;5.38;;;2.30;;
56457;SDS011;42360;42.918;12.366;2023-07-13T02:34:20;4.72;;;2.08;;
56457;SDS011;42360;42.918;12.366;2023-07-13T02:36:45;3.42;;;2.10;;
56457;SDS011;42360;42.918;12.366;2023-07-13T02:39:11;4.68;;;3.30;;
56457;SDS011;42360;42.918;12.366;2023-07-13T02:41:39;3.35;;;2.40;;
56457;SDS011;42360;42.918;12.366;2023-07-13T02:44:05;5.50;;;3.97;;
56457;SDS011;42360;42.918;12.366;2023-07-13T02:46:31;5.72;;;2.40;;
56457;SDS011;42360;42.918;12.366;2023-07-13T02:48:57;4.82;;;2.83;;
56457;SDS011;42360;42.918;12.366;2023-07-13T02:51:23;7.30;;;2.80;;
56457;SDS011;42360;42.918;12.366;2023-07-13T02:53:48;3.35;;;2.10;;
56457;SDS011;42360;42.918;12.366;2023-07-13T02:56:13;6.50;;;2.83;;
56457;SDS011;42360;42.918;12.366;2023-07-13T02:58:39;3.50;;;2.08;;
56457;SDS011;42360;42.918;12.366;2023-07-13T03:01:08;4.25;;;2.30;;
56457;SDS011;42360;42.918;12.366;2023-07-13T03:03:34;4.50;;;2.33;;
56457;SDS011;42360;42.918;12.366;2023-07-13T03:06:00;5.05;;;2.15;;
56457;SDS011;42360;42.918;12.366;2023-07-13T03:08:28;2.90;;;1.85;;
56457;SDS011;42360;42.918;12.366;2023-07-13T03:11:00;2.78;;;2.05;;
56457;SDS011;42360;42.918;12.366;2023-07-13T03:13:27;3.97;;;1.73;;
56457;SDS011;42360;42.918;12.366;2023-07-13T03:15:52;3.20;;;1.92;;
56457;SDS011;42360;42.918;12.366;2023-07-13T03:18:18;6.43;;;2.60;;
56457;SDS011;42360;42.918;12.366;2023-07-13T03:20:43;4.90;;;2.33;;
56457;SDS011;42360;42.918;12.366;2023-07-13T03:23:09;3.17;;;1.50;;
56457;SDS011;42360;42.918;12.366;2023-07-13T03:25:34;2.95;;;2.00;;
56457;SDS011;42360;42.918;12.366;2023-07-13T03:28:00;4.47;;;2.05;;
56457;SDS011;42360;42.918;12.366;2023-07-13T03:30:25;6.68;;;2.63;;
56457;SDS011;42360;42.918;12.366;2023-07-13T03:32:50;4.25;;;2.50;;
56457;SDS011;42360;42.918;12.366;2023-07-13T03:35:16;4.82;;;2.30;;
56457;SDS011;42360;42.918;12.366;2023-07-13T03:37:41;6.35;;;2.72;;
56457;SDS011;42360;42.918;12.366;2023-07-13T03:40:07;5.53;;;2.20;;
56457;SDS011;42360;42.918;12.366;2023-07-13T03:42:34;3.72;;;2.25;;
56457;SDS011;42360;42.918;12.366;2023-07-13T03:44:59;2.10;;;1.67;;
56457;SDS011;42360;42.918;12.366;2023-07-13T03:47:25;4.93;;;2.47;;
56457;SDS011;42360;42.918;12.366;2023-07-13T03:49:50;5.72;;;2.45;;
56457;SDS011;42360;42.918;12.366;2023-07-13T03:52:16;2.97;;;1.50;;
56457;SDS011;42360;42.918;12.366;2023-07-13T03:54:41;3.25;;;1.95;;
56457;SDS011;42360;42.918;12.366;2023-07-13T03:57:07;4.97;;;2.30;;
56457;SDS011;42360;42.918;12.366;2023-07-13T03:59:33;3.83;;;1.92;;
56457;SDS011;42360;42.918;12.366;2023-07-13T04:01:59;6.70;;;2.70;;
56457;SDS011;42360;42.918;12.366;2023-07-13T04:04:26;3.40;;;1.98;;
56457;SDS011;42360;42.918;12.366;2023-07-13T04:06:51;4.95;;;2.20;;
56457;SDS011;42360;42.918;12.366;2023-07-13T04:09:18;2.88;;;2.22;;
56457;SDS011;42360;42.918;12.366;2023-07-13T04:11:44;4.55;;;2.40;;
56457;SDS011;42360;42.918;12.366;2023-07-13T04:14:09;6.60;;;2.40;;
56457;SDS011;42360;42.918;12.366;2023-07-13T04:16:35;3.00;;;1.98;;
56457;SDS011;42360;42.918;12.366;2023-07-13T04:19:00;5.55;;;2.83;;
56457;SDS011;42360;42.918;12.366;2023-07-13T04:21:26;4.00;;;2.05;;
56457;SDS011;42360;42.918;12.366;2023-07-13T04:23:53;3.25;;;2.20;;
56457;SDS011;42360;42.918;12.366;2023-07-13T04:26:18;4.50;;;2.28;;
56457;SDS011;42360;42.918;12.366;2023-07-13T04:28:46;4.55;;;2.40;;
56457;SDS011;42360;42.918;12.366;2023-07-13T04:31:12;6.07;;;2.42;;
56457;SDS011;42360;42.918;12.366;2023-07-13T04:33:37;4.13;;;2.45;;
56457;SDS011;42360;42.918;12.366;2023-07-13T04:36:04;3.95;;;2.13;;
56457;SDS011;42360;42.918;12.366;2023-07-13T04:38:30;4.38;;;2.22;;
56457;SDS011;42360;42.918;12.366;2023-07-13T04:40:58;6.05;;;2.80;;
56457;SDS011;42360;42.918;12.366;2023-07-13T04:43:25;5.88;;;2.75;;
56457;SDS011;42360;42.918;12.366;2023-07-13T04:45:51;7.57;;;2.72;;
56457;SDS011;42360;42.918;12.366;2023-07-13T04:48:17;4.57;;;2.13;;
56457;SDS011;42360;42.918;12.366;2023-07-13T04:50:43;4.82;;;2.20;;
56457;SDS011;42360;42.918;12.366;2023-07-13T04:53:09;8.23;;;2.60;;
56457;SDS011;42360;42.918;12.366;2023-07-13T04:55:35;9.98;;;3.25;;
56457;SDS011;42360;42.918;12.366;2023-07-13T04:58:01;6.50;;;2.70;;
56457;SDS011;42360;42.918;12.366;2023-07-13T05:00:27;4.22;;;2.40;;
56457;SDS011;42360;42.918;12.366;2023-07-13T05:02:54;3.08;;;2.05;;
56457;SDS011;42360;42.918;12.366;2023-07-13T05:05:20;5.47;;;2.90;;
56457;SDS011;42360;42.918;12.366;2023-07-13T05:07:46;5.32;;;2.70;;
56457;SDS011;42360;42.918;12.366;2023-07-13T05:10:11;6.20;;;2.40;;
56457;SDS011;42360;42.918;12.366;2023-07-13T05:12:37;5.03;;;2.70;;
56457;SDS011;42360;42.918;12.366;2023-07-13T05:15:02;5.50;;;2.53;;
56457;SDS011;42360;42.918;12.366;2023-07-13T05:17:29;3.63;;;2.50;;
56457;SDS011;42360;42.918;12.366;2023-07-13T05:19:54;4.43;;;2.50;;
56457;SDS011;42360;42.918;12.366;2023-07-13T05:22:20;11.13;;;3.03;;
56457;SDS011;42360;42.918;12.366;2023-07-13T05:24:46;4.55;;;2.63;;
56457;SDS011;42360;42.918;12.366;2023-07-13T05:27:11;3.00;;;2.30;;
56457;SDS011;42360;42.918;12.366;2023-07-13T05:29:36;4.55;;;2.28;;
56457;SDS011;42360;42.918;12.366;2023-07-13T05:32:02;6.15;;;2.90;;
56457;SDS011;42360;42.918;12.366;2023-07-13T05:34:28;3.75;;;2.40;;
56457;SDS011;42360;42.918;12.366;2023-07-13T05:36:54;5.72;;;2.78;;
56457;SDS011;42360;42.918;12.366;2023-07-13T05:39:19;8.75;;;2.83;;
56457;SDS011;42360;42.918;12.366;2023-07-13T05:41:45;8.32;;;2.95;;
56457;SDS011;42360;42.918;12.366;2023-07-13T05:44:10;3.22;;;2.30;;
56457;SDS011;42360;42.918;12.366;2023-07-13T05:46:36;4.90;;;2.50;;
56457;SDS011;42360;42.918;12.366;2023-07-13T05:49:01;5.45;;;2.88;;
56457;SDS011;42360;42.918;12.366;2023-07-13T05:51:28;3.95;;;2.35;;
56457;SDS011;42360;42.918;12.366;2023-07-13T05:53:53;5.88;;;3.22;;
56457;SDS011;42360;42.918;12.366;2023-07-13T05:56:19;3.55;;;2.38;;
56457;SDS011;42360;42.918;12.366;2023-07-13T05:58:44;4.07;;;2.70;;
56457;SDS011;42360;42.918;12.366;2023-07-13T06:01:11;5.20;;;2.33;;
56457;SDS011;42360;42.918;12.366;2023-07-13T06:03:38;3.63;;;2.33;;
56457;SDS011;42360;42.918;12.366;2023-07-13T06:06:04;5.70;;;3.05;;
56457;SDS011;42360;42.918;12.366;2023-07-13T06:08:30;10.43;;;5.32;;
56457;SDS011;42360;42.918;12.366;2023-07-13T06:11:16;10.48;;;5.85;;
56457;SDS011;42360;42.918;12.366;2023-07-13T06:13:43;16.25;;;7.22;;
56457;SDS011;42360;42.918;12.366;2023-07-13T06:16:09;13.75;;;5.55;;
56457;SDS011;42360;42.918;12.366;2023-07-13T06:18:34;6.75;;;4.25;;
56457;SDS011;42360;42.918;12.366;2023-07-13T06:21:10;5.80;;;4.32;;
56457;SDS011;42360;42.918;12.366;2023-07-13T06:23:44;8.13;;;4.28;;
56457;SDS011;42360;42.918;12.366;2023-07-13T06:26:12;10.18;;;4.47;;
56457;SDS011;42360;42.918;12.366;2023-07-13T06:28:38;7.43;;;4.40;;
56457;SDS011;42360;42.918;12.366;2023-07-13T06:31:05;6.18;;;3.50;;
56457;SDS011;42360;42.918;12.366;2023-07-13T06:33:32;8.57;;;4.10;;
56457;SDS011;42360;42.918;12.366;2023-07-13T06:35:58;8.88;;;3.63;;
56457;SDS011;42360;42.918;12.366;2023-07-13T06:38:23;6.72;;;2.80;;
56457;SDS011;42360;42.918;12.366;2023-07-13T06:40:49;3.40;;;2.10;;
56457;SDS011;42360;42.918;12.366;2023-07-13T06:43:14;7.57;;;2.50;;
56457;SDS011;42360;42.918;12.366;2023-07-13T06:45:40;5.47;;;2.40;;
56457;SDS011;42360;42.918;12.366;2023-07-13T06:48:14;7.40;;;3.78;;
56457;SDS011;42360;42.918;12.366;2023-07-13T06:50:43;4.05;;;2.78;;
56457;SDS011;42360;42.918;12.366;2023-07-13T06:53:09;4.43;;;2.38;;
56457;SDS011;42360;42.918;12.366;2023-07-13T06:55:35;2.85;;;2.05;;
56457;SDS011;42360;42.918;12.366;2023-07-13T06:58:00;4.72;;;2.45;;
56457;SDS011;42360;42.918;12.366;2023-07-13T07:00:26;5.22;;;2.47;;
56457;SDS011;42360;42.918;12.366;2023-07-13T07:02:51;4.50;;;2.40;;
56457;SDS011;42360;42.918;12.366;2023-07-13T07:05:17;3.05;;;2.30;;
56457;SDS011;42360;42.918;12.366;2023-07-13T07:07:42;3.72;;;2.55;;
56457;SDS011;42360;42.918;12.366;2023-07-13T07:10:08;11.35;;;2.63;;
56457;SDS011;42360;42.918;12.366;2023-07-13T07:12:33;5.72;;;2.05;;
56457;SDS011;42360;42.918;12.366;2023-07-13T07:14:59;5.00;;;1.70;;
56457;SDS011;42360;42.918;12.366;2023-07-13T07:17:24;4.43;;;2.17;;
56457;SDS011;42360;42.918;12.366;2023-07-13T07:19:51;1.98;;;1.80;;
56457;SDS011;42360;42.918;12.366;2023-07-13T07:22:18;3.15;;;1.80;;
56457;SDS011;42360;42.918;12.366;2023-07-13T07:24:45;2.85;;;2.15;;
56457;SDS011;42360;42.918;12.366;2023-07-13T07:27:10;2.92;;;2.00;;
56457;SDS011;42360;42.918;12.366;2023-07-13T07:29:36;5.57;;;2.47;;
56457;SDS011;42360;42.918;12.366;2023-07-13T07:32:01;5.35;;;3.90;;
56457;SDS011;42360;42.918;12.366;2023-07-13T07:34:26;6.38;;;3.97;;
56457;SDS011;42360;42.918;12.366;2023-07-13T07:36:53;3.75;;;1.70;;
56457;SDS011;42360;42.918;12.366;2023-07-13T07:39:18;5.78;;;1.90;;
56457;SDS011;42360;42.918;12.366;2023-07-13T07:41:44;4.90;;;2.47;;
56457;SDS011;42360;42.918;12.366;2023-07-13T07:44:09;3.78;;;2.13;;
56457;SDS011;42360;42.918;12.366;2023-07-13T07:46:35;2.28;;;2.08;;
56457;SDS011;42360;42.918;12.366;2023-07-13T07:49:00;10.65;;;2.22;;
56457;SDS011;42360;42.918;12.366;2023-07-13T07:51:26;8.38;;;2.70;;
56457;SDS011;42360;42.918;12.366;2023-07-13T07:53:51;5.07;;;2.28;;
56457;SDS011;42360;42.918;12.366;2023-07-13T07:56:17;4.40;;;2.20;;
56457;SDS011;42360;42.918;12.366;2023-07-13T07:58:43;6.40;;;2.70;;
56457;SDS011;42360;42.918;12.366;2023-07-13T08:01:09;2.67;;;2.20;;
56457;SDS011;42360;42.918;12.366;2023-07-13T08:03:35;6.57;;;2.55;;
56457;SDS011;42360;42.918;12.366;2023-07-13T08:06:01;4.18;;;2.60;;
56457;SDS011;42360;42.918;12.366;2023-07-13T08:08:26;4.10;;;2.28;;
56457;SDS011;42360;42.918;12.366;2023-07-13T08:10:52;7.85;;;2.70;;
56457;SDS011;42360;42.918;12.366;2023-07-13T08:13:18;4.07;;;2.35;;
56457;SDS011;42360;42.918;12.366;2023-07-13T08:15:43;4.30;;;2.55;;
56457;SDS011;42360;42.918;12.366;2023-07-13T08:18:09;6.93;;;2.28;;
56457;SDS011;42360;42.918;12.366;2023-07-13T08:20:38;5.25;;;2.22;;
56457;SDS011;42360;42.918;12.366;2023-07-13T08:23:04;4.57;;;2.88;;
56457;SDS011;42360;42.918;12.366;2023-07-13T08:25:29;3.53;;;2.40;;
56457;SDS011;42360;42.918;12.366;2023-07-13T08:27:55;3.75;;;2.25;;
56457;SDS011;42360;42.918;12.366;2023-07-13T08:30:20;5.03;;;2.30;;
56457;SDS011;42360;42.918;12.366;2023-07-13T08:32:46;7.55;;;2.67;;
56457;SDS011;42360;42.918;12.366;2023-07-13T08:35:11;2.03;;;1.80;;
56457;SDS011;42360;42.918;12.366;2023-07-13T08:37:38;3.65;;;2.25;;
56457;SDS011;42360;42.918;12.366;2023-07-13T08:40:07;3.88;;;2.10;;
56457;SDS011;42360;42.918;12.366;2023-07-13T08:42:49;3.50;;;2.30;;
56457;SDS011;42360;42.918;12.366;2023-07-13T08:45:23;3.97;;;2.20;;
56457;SDS011;42360;42.918;12.366;2023-07-13T08:47:53;5.72;;;2.78;;
56457;SDS011;42360;42.918;12.366;2023-07-13T08:50:24;6.97;;;2.58;;
56457;SDS011;42360;42.918;12.366;2023-07-13T08:52:52;4.73;;;3.00;;
56457;SDS011;42360;42.918;12.366;2023-07-13T08:55:19;5.43;;;2.25;;
56457;SDS011;42360;42.918;12.366;2023-07-13T08:57:53;3.22;;;2.40;;
56457;SDS011;42360;42.918;12.366;2023-07-13T09:00:21;5.55;;;2.67;;
56457;SDS011;42360;42.918;12.366;2023-07-13T09:02:52;3.10;;;2.40;;
56457;SDS011;42360;42.918;12.366;2023-07-13T09:07:55;4.78;;;2.50;;
56457;SDS011;42360;42.918;12.366;2023-07-13T09:13:34;3.30;;;2.70;;
56457;SDS011;42360;42.918;12.366;2023-07-13T09:16:05;5.72;;;3.15;;
56457;SDS011;42360;42.918;12.366;2023-07-13T09:18:49;5.72;;;2.90;;
56457;SDS011;42360;42.918;12.366;2023-07-13T09:21:32;3.97;;;3.58;;
56457;SDS011;42360;42.918;12.366;2023-07-13T09:26:42;6.70;;;2.85;;
56457;SDS011;42360;42.918;12.366;2023-07-13T09:29:14;7.00;;;2.97;;
56457;SDS011;42360;42.918;12.366;2023-07-13T09:31:49;9.95;;;3.78;;
56457;SDS011;42360;42.918;12.366;2023-07-13T09:34:18;3.72;;;2.67;;
56457;SDS011;42360;42.918;12.366;2023-07-13T09:36:43;5.97;;;2.97;;
56457;SDS011;42360;42.918;12.366;2023-07-13T09:39:21;3.00;;;2.17;;
56457;SDS011;42360;42.918;12.366;2023-07-13T09:41:54;5.10;;;2.25;;
56457;SDS011;42360;42.918;12.366;2023-07-13T09:44:30;5.47;;;2.80;;
56457;SDS011;42360;42.918;12.366;2023-07-13T09:47:00;6.82;;;2.75;;
56457;SDS011;42360;42.918;12.366;2023-07-13T09:49:34;4.43;;;3.13;;
56457;SDS011;42360;42.918;12.366;2023-07-13T09:52:05;5.82;;;2.90;;
56457;SDS011;42360;42.918;12.366;2023-07-13T09:54:35;5.53;;;2.83;;
56457;SDS011;42360;42.918;12.366;2023-07-13T09:57:01;5.70;;;2.80;;
56457;SDS011;42360;42.918;12.366;2023-07-13T09:59:29;4.47;;;2.90;;
56457;SDS011;42360;42.918;12.366;2023-07-13T10:01:57;3.90;;;2.40;;
56457;SDS011;42360;42.918;12.366;2023-07-13T10:04:28;5.45;;;2.40;;
56457;SDS011;42360;42.918;12.366;2023-07-13T10:07:05;6.22;;;3.20;;
56457;SDS011;42360;42.918;12.366;2023-07-13T10:09:32;4.82;;;3.00;;
56457;SDS011;42360;42.918;12.366;2023-07-13T10:11:57;5.60;;;2.65;;
56457;SDS011;42360;42.918;12.366;2023-07-13T10:14:23;5.72;;;2.92;;
56457;SDS011;42360;42.918;12.366;2023-07-13T10:16:51;5.35;;;2.70;;
56457;SDS011;42360;42.918;12.366;2023-07-13T10:19:23;4.57;;;2.97;;
56457;SDS011;42360;42.918;12.366;2023-07-13T10:21:55;4.68;;;2.70;;
56457;SDS011;42360;42.918;12.366;2023-07-13T10:24:25;3.78;;;2.38;;
56457;SDS011;42360;42.918;12.366;2023-07-13T10:29:39;4.68;;;3.65;;
56457;SDS011;42360;42.918;12.366;2023-07-13T10:32:13;8.02;;;3.35;;
56457;SDS011;42360;42.918;12.366;2023-07-13T10:34:43;3.17;;;2.15;;
56457;SDS011;42360;42.918;12.366;2023-07-13T10:37:20;3.78;;;2.88;;
56457;SDS011;42360;42.918;12.366;2023-07-13T10:39:50;5.87;;;2.53;;
56457;SDS011;42360;42.918;12.366;2023-07-13T10:42:29;3.95;;;2.72;;
56457;SDS011;42360;42.918;12.366;2023-07-13T10:44:57;4.70;;;3.42;;
56457;SDS011;42360;42.918;12.366;2023-07-13T10:47:23;6.00;;;2.92;;
56457;SDS011;42360;42.918;12.366;2023-07-13T10:49:50;3.95;;;2.28;;
56457;SDS011;42360;42.918;12.366;2023-07-13T10:58:01;6.68;;;3.40;;
56457;SDS011;42360;42.918;12.366;2023-07-13T11:00:30;6.57;;;2.65;;
56457;SDS011;42360;42.918;12.366;2023-07-13T11:02:57;4.28;;;2.70;;
56457;SDS011;42360;42.918;12.366;2023-07-13T11:05:27;5.97;;;2.88;;
56457;SDS011;42360;42.918;12.366;2023-07-13T11:08:03;4.28;;;2.97;;
56457;SDS011;42360;42.918;12.366;2023-07-13T11:10:54;10.68;;;3.47;;
56457;SDS011;42360;42.918;12.366;2023-07-13T11:16:34;4.03;;;2.70;;
56457;SDS011;42360;42.918;12.366;2023-07-13T11:21:27;7.35;;;3.47;;
56457;SDS011;42360;42.918;12.366;2023-07-13T11:24:03;18.58;;;3.83;;
56457;SDS011;42360;42.918;12.366;2023-07-13T11:26:43;7.68;;;4.05;;
56457;SDS011;42360;42.918;12.366;2023-07-13T11:29:23;7.88;;;4.30;;
56457;SDS011;42360;42.918;12.366;2023-07-13T11:31:51;9.52;;;4.38;;
56457;SDS011;42360;42.918;12.366;2023-07-13T11:34:21;4.95;;;3.70;;
56457;SDS011;42360;42.918;12.366;2023-07-13T11:36:52;9.15;;;4.22;;
56457;SDS011;42360;42.918;12.366;2023-07-13T11:39:37;8.88;;;3.78;;
56457;SDS011;42360;42.918;12.366;2023-07-13T11:42:07;5.68;;;3.60;;
56457;SDS011;42360;42.918;12.366;2023-07-13T11:44:41;5.80;;;3.70;;
56457;SDS011;42360;42.918;12.366;2023-07-13T11:47:17;7.45;;;4.18;;
56457;SDS011;42360;42.918;12.366;2023-07-13T11:49:50;4.35;;;2.80;;
56457;SDS011;42360;42.918;12.366;2023-07-13T11:52:18;4.28;;;2.83;;
56457;SDS011;42360;42.918;12.366;2023-07-13T11:57:24;4.30;;;3.13;;
56457;SDS011;42360;42.918;12.366;2023-07-13T11:59:58;4.40;;;3.65;;
56457;SDS011;42360;42.918;12.366;2023-07-13T12:02:36;5.60;;;3.20;;
56457;SDS011;42360;42.918;12.366;2023-07-13T12:05:04;7.68;;;4.00;;
56457;SDS011;42360;42.918;12.366;2023-07-13T12:07:30;6.18;;;3.00;;
56457;SDS011;42360;42.918;12.366;2023-07-13T12:10:01;6.07;;;3.40;;
56457;SDS011;42360;42.918;12.366;2023-07-13T12:12:34;3.60;;;2.67;;
56457;SDS011;42360;42.918;12.366;2023-07-13T12:15:00;4.82;;;2.63;;
56457;SDS011;42360;42.918;12.366;2023-07-13T12:17:25;3.13;;;2.72;;
56457;SDS011;42360;42.918;12.366;2023-07-13T12:19:52;3.33;;;2.80;;
56457;SDS011;42360;42.918;12.366;2023-07-13T12:22:18;5.05;;;3.20;;
56457;SDS011;42360;42.918;12.366;2023-07-13T12:24:45;4.47;;;3.17;;
56457;SDS011;42360;42.918;12.366;2023-07-13T12:29:52;4.13;;;2.28;;
56457;SDS011;42360;42.918;12.366;2023-07-13T12:32:21;7.95;;;3.60;;
56457;SDS011;42360;42.918;12.366;2023-07-13T12:37:50;4.20;;;2.33;;
56457;SDS011;42360;42.918;12.366;2023-07-13T12:40:18;5.60;;;3.20;;
56457;SDS011;42360;42.918;12.366;2023-07-13T12:42:46;6.88;;;3.30;;
56457;SDS011;42360;42.918;12.366;2023-07-13T12:45:20;2.63;;;2.33;;
56457;SDS011;42360;42.918;12.366;2023-07-13T12:47:49;7.93;;;3.05;;
56457;SDS011;42360;42.918;12.366;2023-07-13T12:50:19;6.85;;;4.18;;
56457;SDS011;42360;42.918;12.366;2023-07-13T12:52:50;3.72;;;2.60;;
56457;SDS011;42360;42.918;12.366;2023-07-13T12:55:18;5.03;;;3.13;;
56457;SDS011;42360;42.918;12.366;2023-07-13T12:57:47;3.25;;;2.10;;
56457;SDS011;42360;42.918;12.366;2023-07-13T13:00:30;3.08;;;2.25;;
56457;SDS011;42360;42.918;12.366;2023-07-13T13:03:06;6.57;;;3.10;;
56457;SDS011;42360;42.918;12.366;2023-07-13T13:05:37;5.03;;;3.20;;
56457;SDS011;42360;42.918;12.366;2023-07-13T13:08:03;4.85;;;2.78;;
56457;SDS011;42360;42.918;12.366;2023-07-13T13:10:28;7.53;;;2.95;;
56457;SDS011;42360;42.918;12.366;2023-07-13T13:12:54;8.65;;;3.28;;
56457;SDS011;42360;42.918;12.366;2023-07-13T13:15:19;4.40;;;2.45;;
56457;SDS011;42360;42.918;12.366;2023-07-13T13:17:47;4.85;;;2.42;;
56457;SDS011;42360;42.918;12.366;2023-07-13T13:20:16;3.63;;;2.58;;
56457;SDS011;42360;42.918;12.366;2023-07-13T13:22:44;7.47;;;3.78;;
56457;SDS011;42360;42.918;12.366;2023-07-13T13:25:14;11.23;;;3.10;;
56457;SDS011;42360;42.918;12.366;2023-07-13T13:27:43;4.50;;;2.90;;
56457;SDS011;42360;42.918;12.366;2023-07-13T13:30:13;9.05;;;3.22;;
56457;SDS011;42360;42.918;12.366;2023-07-13T13:32:41;8.90;;;3.50;;
56457;SDS011;42360;42.918;12.366;2023-07-13T13:35:28;3.35;;;2.75;;
56457;SDS011;42360;42.918;12.366;2023-07-13T13:37:54;7.38;;;3.40;;
56457;SDS011;42360;42.918;12.366;2023-07-13T13:40:21;3.30;;;2.88;;
56457;SDS011;42360;42.918;12.366;2023-07-13T13:42:51;5.80;;;3.42;;
56457;SDS011;42360;42.918;12.366;2023-07-13T13:45:18;5.93;;;3.72;;
56457;SDS011;42360;42.918;12.366;2023-07-13T13:47:45;6.03;;;3.00;;
56457;SDS011;42360;42.918;12.366;2023-07-13T13:50:15;6.38;;;3.30;;
56457;SDS011;42360;42.918;12.366;2023-07-13T13:52:45;9.77;;;3.05;;
56457;SDS011;42360;42.918;12.366;2023-07-13T13:55:11;7.22;;;3.13;;
56457;SDS011;42360;42.918;12.366;2023-07-13T13:57:40;5.00;;;2.47;;
56457;SDS011;42360;42.918;12.366;2023-07-13T14:00:07;6.50;;;3.83;;
56457;SDS011;42360;42.918;12.366;2023-07-13T14:02:34;4.53;;;3.05;;
56457;SDS011;42360;42.918;12.366;2023-07-13T14:05:01;6.32;;;3.17;;
56457;SDS011;42360;42.918;12.366;2023-07-13T14:07:28;4.68;;;2.80;;
56457;SDS011;42360;42.918;12.366;2023-07-13T14:09:57;8.07;;;2.58;;
56457;SDS011;42360;42.918;12.366;2023-07-13T14:12:24;7.90;;;2.97;;
56457;SDS011;42360;42.918;12.366;2023-07-13T14:14:53;7.30;;;3.50;;
56457;SDS011;42360;42.918;12.366;2023-07-13T14:17:20;3.72;;;2.67;;
56457;SDS011;42360;42.918;12.366;2023-07-13T14:19:50;4.05;;;3.13;;
56457;SDS011;42360;42.918;12.366;2023-07-13T14:22:17;7.85;;;3.40;;
56457;SDS011;42360;42.918;12.366;2023-07-13T14:24:43;7.50;;;3.42;;
56457;SDS011;42360;42.918;12.366;2023-07-13T14:27:12;9.70;;;4.22;;
56457;SDS011;42360;42.918;12.366;2023-07-13T14:29:37;7.70;;;3.88;;
56457;SDS011;42360;42.918;12.366;2023-07-13T14:32:03;3.90;;;3.03;;
56457;SDS011;42360;42.918;12.366;2023-07-13T14:34:30;7.63;;;2.63;;
56457;SDS011;42360;42.918;12.366;2023-07-13T14:36:55;6.82;;;3.95;;
56457;SDS011;42360;42.918;12.366;2023-07-13T14:39:23;4.68;;;2.45;;
56457;SDS011;42360;42.918;12.366;2023-07-13T14:41:53;5.72;;;3.35;;
56457;SDS011;42360;42.918;12.366;2023-07-13T14:44:21;7.55;;;3.47;;
56457;SDS011;42360;42.918;12.366;2023-07-13T14:46:52;9.45;;;3.20;;
56457;SDS011;42360;42.918;12.366;2023-07-13T14:51:49;10.50;;;3.65;;
56457;SDS011;42360;42.918;12.366;2023-07-13T14:54:14;4.40;;;2.97;;
56457;SDS011;42360;42.918;12.366;2023-07-13T14:56:39;4.70;;;2.72;;
56457;SDS011;42360;42.918;12.366;2023-07-13T14:59:05;9.18;;;3.35;;
56457;SDS011;42360;42.918;12.366;2023-07-13T15:01:32;6.55;;;3.00;;
56457;SDS011;42360;42.918;12.366;2023-07-13T15:04:00;7.75;;;3.67;;
56457;SDS011;42360;42.918;12.366;2023-07-13T15:06:26;8.40;;;4.60;;
56457;SDS011;42360;42.918;12.366;2023-07-13T15:08:52;6.40;;;2.83;;